Time;durP1;ratioP1;P1;durP2;ratioP2;P2;SDS_P1;SDS_P2;PMS_P1;PMS_P2;Temp;Humidity;BMP_temperature;BMP_pressure;BME280_temperature;BME280_humidity;BME280_pressure;Samples;Min_cycle;Max_cycle;Signal;HPM_P1;HPM_P2
2024/02/16 00:02:09;;;;;;;6.00;3.60;;;14.20;99.90;;;;;;5075422;28;20473;-56
2024/02/16 00:04:36;;;;;;;7.00;3.70;;;14.20;99.90;;;;;;5074952;28;20477;-56
2024/02/16 00:07:03;;;;;;;4.53;2.90;;;14.20;99.90;;;;;;5074738;28;20441;-55
2024/02/16 00:09:33;;;;;;;4.53;3.13;;;14.20;99.90;;;;;;5073843;28;20986;-56
2024/02/16 00:11:59;;;;;;;4.10;2.80;;;14.20;99.90;;;;;;5074492;28;20943;-56
2024/02/16 00:14:26;;;;;;;3.90;2.97;;;14.20;99.90;;;;;;5074523;28;20935;-56
2024/02/16 00:16:53;;;;;;;4.70;3.50;;;14.10;99.90;;;;;;5074648;28;20545;-56
2024/02/16 00:19:20;;;;;;;5.77;3.30;;;14.20;99.90;;;;;;5074563;28;20456;-56
2024/02/16 00:21:47;;;;;;;3.70;2.53;;;14.10;99.90;;;;;;5074599;28;20532;-56
2024/02/16 00:24:13;;;;;;;4.20;2.73;;;14.20;99.90;;;;;;5074565;28;20454;-56
2024/02/16 00:26:43;;;;;;;3.50;2.80;;;14.10;99.90;;;;;;5074670;28;20453;-56
2024/02/16 00:29:09;;;;;;;4.80;3.10;;;14.10;99.90;;;;;;5074703;28;20464;-56
2024/02/16 00:31:36;;;;;;;5.73;3.20;;;14.10;99.90;;;;;;5074131;28;20938;-56
2024/02/16 00:34:03;;;;;;;9.23;3.07;;;14.20;99.90;;;;;;5074434;28;20551;-56
2024/02/16 00:36:30;;;;;;;3.80;2.93;;;14.10;99.90;;;;;;5074322;28;20443;-56
2024/02/16 00:38:57;;;;;;;3.53;2.90;;;14.20;99.90;;;;;;5074191;28;20464;-56
2024/02/16 00:41:24;;;;;;;4.77;3.20;;;14.10;99.90;;;;;;5074554;28;20468;-56
2024/02/16 00:43:53;;;;;;;6.50;2.63;;;14.10;99.90;;;;;;5074115;28;20487;-56
2024/02/16 00:46:20;;;;;;;4.93;3.07;;;14.10;99.90;;;;;;5073999;28;20484;-56
2024/02/16 00:48:47;;;;;;;7.30;3.70;;;14.10;99.90;;;;;;5073506;28;20997;-55
2024/02/16 00:51:14;;;;;;;4.70;2.60;;;14.10;99.90;;;;;;5074073;28;20445;-56
2024/02/16 00:53:41;;;;;;;5.80;3.90;;;14.10;99.90;;;;;;5073801;28;20878;-56
2024/02/16 00:56:08;;;;;;;4.40;3.33;;;14.10;99.90;;;;;;5073289;28;20447;-56
2024/02/16 00:58:35;;;;;;;4.47;2.80;;;14.10;99.90;;;;;;5074142;28;20473;-56
2024/02/16 01:01:04;;;;;;;4.40;3.37;;;14.10;99.90;;;;;;5073898;28;20443;-56
2024/02/16 01:03:31;;;;;;;5.73;2.50;;;14.10;99.90;;;;;;5073871;28;20448;-56
2024/02/16 01:05:58;;;;;;;3.60;2.60;;;14.10;99.90;;;;;;5073624;28;20494;-56
2024/02/16 01:08:24;;;;;;;5.33;2.50;;;14.10;99.90;;;;;;5073660;28;20463;-56
2024/02/16 01:10:51;;;;;;;3.00;2.70;;;14.10;99.90;;;;;;5073719;28;20444;-56
2024/02/16 01:13:18;;;;;;;3.87;2.50;;;14.10;99.90;;;;;;5073563;28;20451;-56
2024/02/16 01:15:45;;;;;;;6.33;3.63;;;14.10;99.90;;;;;;5073334;28;20451;-56
2024/02/16 01:18:13;;;;;;;3.90;2.47;;;14.10;99.90;;;;;;5073536;28;20510;-56
2024/02/16 01:20:40;;;;;;;6.57;3.03;;;14.10;99.90;;;;;;5073162;28;20445;-55
2024/02/16 01:23:07;;;;;;;6.73;2.60;;;14.10;99.90;;;;;;5073710;28;20440;-56
2024/02/16 01:25:34;;;;;;;5.60;3.13;;;14.10;99.90;;;;;;5073284;28;20481;-56
2024/02/16 01:28:01;;;;;;;6.80;3.20;;;14.10;99.90;;;;;;5073523;28;20507;-56
2024/02/16 01:30:27;;;;;;;4.10;2.83;;;14.10;99.90;;;;;;5073597;28;20451;-56
2024/02/16 01:32:54;;;;;;;7.60;2.67;;;14.10;99.90;;;;;;5073208;28;20897;-56
2024/02/16 01:35:22;;;;;;;5.03;2.40;;;14.10;99.90;;;;;;5073423;28;20479;-56
2024/02/16 01:37:50;;;;;;;4.30;2.70;;;14.10;99.90;;;;;;5073305;28;20437;-56
2024/02/16 01:40:17;;;;;;;3.00;2.43;;;14.10;99.90;;;;;;5073567;28;20440;-56
2024/02/16 01:42:44;;;;;;;3.30;2.63;;;14.10;99.90;;;;;;5073017;28;21021;-56
2024/02/16 01:45:12;;;;;;;5.50;2.87;;;14.10;99.90;;;;;;5073397;28;20482;-56
2024/02/16 01:47:39;;;;;;;3.20;2.90;;;14.10;99.90;;;;;;5073089;28;20853;-55
2024/02/16 01:50:08;;;;;;;3.30;2.63;;;14.10;99.90;;;;;;5073303;28;20524;-56
2024/02/16 01:52:36;;;;;;;3.07;2.67;;;14.00;99.90;;;;;;5072873;28;20962;-56
2024/02/16 01:55:04;;;;;;;4.67;2.77;;;14.00;99.90;;;;;;5072877;28;20444;-57
2024/02/16 01:57:32;;;;;;;5.13;2.50;;;14.00;99.90;;;;;;5073228;28;20443;-57
2024/02/16 01:59:59;;;;;;;4.10;2.50;;;14.00;99.90;;;;;;5074163;28;20471;-57
2024/02/16 02:02:26;;;;;;;4.43;2.83;;;14.00;99.90;;;;;;5073481;28;20446;-57
2024/02/16 02:04:53;;;;;;;4.63;2.90;;;14.00;99.90;;;;;;5073433;28;20471;-56
2024/02/16 02:07:21;;;;;;;6.17;2.60;;;14.00;99.90;;;;;;5072817;28;20444;-57
2024/02/16 02:09:50;;;;;;;6.40;2.70;;;14.00;99.90;;;;;;5073165;28;20469;-57
2024/02/16 02:12:18;;;;;;;4.07;3.13;;;13.90;99.90;;;;;;5073140;28;20445;-57
2024/02/16 02:14:46;;;;;;;4.40;2.63;;;13.90;99.90;;;;;;5073116;28;20874;-57
2024/02/16 02:17:13;;;;;;;2.43;2.20;;;13.90;99.90;;;;;;5073016;28;20440;-57
2024/02/16 02:19:40;;;;;;;4.83;3.13;;;13.90;99.90;;;;;;5073014;28;20463;-57
2024/02/16 02:22:13;;;;;;;3.03;2.30;;;13.90;99.90;;;;;;5073534;28;20445;-57
2024/02/16 02:24:40;;;;;;;6.30;2.53;;;13.90;99.90;;;;;;5073079;28;20425;-57
2024/02/16 02:27:07;;;;;;;5.40;3.20;;;13.80;99.90;;;;;;5072597;28;20448;-57
2024/02/16 02:29:34;;;;;;;5.17;3.10;;;13.80;99.90;;;;;;5072744;28;20476;-57
2024/02/16 02:32:01;;;;;;;3.13;2.73;;;13.80;99.90;;;;;;5074955;28;20436;-56
2024/02/16 02:34:28;;;;;;;3.97;3.00;;;13.80;99.90;;;;;;5076933;28;20450;-56
2024/02/16 02:36:55;;;;;;;3.27;2.97;;;13.80;99.90;;;;;;5076287;28;20992;-57
2024/02/16 02:39:23;;;;;;;5.27;3.37;;;13.80;99.90;;;;;;5076619;28;20478;-57
2024/02/16 02:41:50;;;;;;;5.23;3.47;;;13.80;99.90;;;;;;5076543;28;20447;-56
2024/02/16 02:44:16;;;;;;;4.70;3.30;;;13.80;99.90;;;;;;5076070;28;20441;-56
2024/02/16 02:46:43;;;;;;;3.60;3.27;;;13.80;99.90;;;;;;5076091;28;21031;-57
2024/02/16 02:49:10;;;;;;;4.40;3.57;;;13.80;99.90;;;;;;5076451;28;20483;-56
2024/02/16 02:51:37;;;;;;;4.10;3.00;;;13.80;99.90;;;;;;5076321;28;20445;-57
2024/02/16 02:54:04;;;;;;;6.40;3.30;;;13.80;99.90;;;;;;5076386;28;20456;-56
2024/02/16 02:56:32;;;;;;;6.10;3.60;;;13.80;99.90;;;;;;5076318;28;20441;-56
2024/02/16 02:58:59;;;;;;;3.80;3.13;;;13.80;99.90;;;;;;5076405;28;20471;-57
2024/02/16 03:01:25;;;;;;;9.93;4.10;;;13.80;99.90;;;;;;5076166;28;20442;-56
2024/02/16 03:03:52;;;;;;;5.10;3.17;;;13.80;99.90;;;;;;5076137;28;20448;-56
2024/02/16 03:06:19;;;;;;;4.77;2.53;;;13.70;99.90;;;;;;5076024;28;20487;-56
2024/02/16 03:08:47;;;;;;;4.00;3.23;;;13.70;99.90;;;;;;5076041;28;20467;-56
2024/02/16 03:11:13;;;;;;;3.87;2.97;;;13.70;99.90;;;;;;5076022;28;20540;-56
2024/02/16 03:13:41;;;;;;;5.90;4.07;;;13.80;99.90;;;;;;5075883;28;20449;-56
2024/02/16 03:16:09;;;;;;;4.10;3.10;;;13.80;99.90;;;;;;5075761;28;20443;-56
2024/02/16 03:18:37;;;;;;;5.40;3.17;;;13.70;99.90;;;;;;5075809;28;20461;-56
2024/02/16 03:21:04;;;;;;;5.20;3.27;;;13.70;99.90;;;;;;5075767;28;20506;-56
2024/02/16 03:23:31;;;;;;;3.57;2.60;;;13.70;99.90;;;;;;5075914;28;20441;-56
2024/02/16 03:25:58;;;;;;;3.60;3.20;;;13.70;99.90;;;;;;5075633;28;20507;-56
2024/02/16 03:28:25;;;;;;;5.23;3.07;;;13.70;99.90;;;;;;5075664;28;20467;-56
2024/02/16 03:30:53;;;;;;;4.30;2.83;;;13.80;99.90;;;;;;5075586;28;20532;-56
2024/02/16 03:33:21;;;;;;;5.47;3.40;;;13.70;99.90;;;;;;5075550;28;20452;-56
2024/02/16 03:35:48;;;;;;;8.53;3.50;;;13.70;99.90;;;;;;5075512;28;20443;-56
2024/02/16 03:38:15;;;;;;;5.33;3.77;;;13.70;99.90;;;;;;5075456;28;20465;-56
2024/02/16 03:40:42;;;;;;;5.73;2.80;;;13.70;99.90;;;;;;5075512;28;20451;-56
2024/02/16 03:43:08;;;;;;;3.70;2.80;;;13.70;99.90;;;;;;5075199;28;20539;-56
2024/02/16 03:45:35;;;;;;;8.80;2.83;;;13.70;99.90;;;;;;5075293;28;20472;-57
2024/02/16 03:48:04;;;;;;;4.73;3.13;;;13.80;99.90;;;;;;5075289;28;20472;-57
2024/02/16 03:50:31;;;;;;;3.87;2.63;;;13.80;99.90;;;;;;5074668;28;20787;-57
2024/02/16 03:52:59;;;;;;;4.30;2.57;;;13.80;99.90;;;;;;5075146;28;20453;-56
2024/02/16 03:55:26;;;;;;;4.50;2.70;;;13.80;99.90;;;;;;5075008;28;20911;-56
2024/02/16 03:57:52;;;;;;;4.73;2.87;;;13.80;99.90;;;;;;5075094;28;20449;-57
2024/02/16 04:00:20;;;;;;;4.80;2.70;;;13.80;99.90;;;;;;5075052;28;20445;-56
2024/02/16 04:02:47;;;;;;;3.27;2.87;;;13.80;99.90;;;;;;5074962;28;20882;-57
2024/02/16 04:05:15;;;;;;;7.90;2.70;;;13.80;99.90;;;;;;5074881;28;20448;-56
2024/02/16 04:07:42;;;;;;;3.67;3.03;;;13.80;99.90;;;;;;5074750;28;20532;-57
2024/02/16 04:10:09;;;;;;;4.20;2.70;;;13.80;99.90;;;;;;5074903;28;20441;-57
2024/02/16 04:12:37;;;;;;;5.40;3.00;;;13.80;99.90;;;;;;5075055;28;20817;-56
2024/02/16 04:15:04;;;;;;;3.40;2.50;;;13.80;99.90;;;;;;5074566;28;20996;-56
2024/02/16 04:17:31;;;;;;;2.63;2.43;;;13.80;99.90;;;;;;5074831;28;20825;-57
2024/02/16 04:19:58;;;;;;;4.40;2.70;;;13.80;99.90;;;;;;5074303;28;21014;-56
2024/02/16 04:22:26;;;;;;;4.50;2.93;;;13.80;99.90;;;;;;5074211;28;20449;-56
2024/02/16 04:24:53;;;;;;;5.93;3.37;;;13.80;99.90;;;;;;5074307;28;20825;-56
2024/02/16 04:27:19;;;;;;;5.77;3.00;;;13.80;99.90;;;;;;5074132;28;21021;-56
2024/02/16 04:29:46;;;;;;;5.87;3.00;;;13.80;99.90;;;;;;5074335;28;20562;-56
2024/02/16 04:32:13;;;;;;;3.80;2.50;;;13.80;99.90;;;;;;5074568;28;20444;-56
2024/02/16 04:34:40;;;;;;;4.63;2.97;;;13.90;99.90;;;;;;5074418;28;20440;-56
2024/02/16 04:37:06;;;;;;;3.10;2.33;;;13.90;99.90;;;;;;5074582;28;20447;-57
2024/02/16 04:39:35;;;;;;;5.20;3.10;;;13.80;99.90;;;;;;5074285;28;20472;-57
2024/02/16 04:42:02;;;;;;;7.30;2.50;;;13.80;99.90;;;;;;5074448;28;20449;-56
2024/02/16 04:44:29;;;;;;;2.93;2.40;;;13.80;99.90;;;;;;5073896;28;20963;-56
2024/02/16 04:46:56;;;;;;;6.30;2.83;;;13.80;99.90;;;;;;5074063;28;20558;-56
2024/02/16 04:49:23;;;;;;;3.23;2.67;;;13.80;99.90;;;;;;5073933;28;20468;-57
2024/02/16 04:51:50;;;;;;;2.70;2.40;;;13.80;99.90;;;;;;5074055;28;20444;-57
2024/02/16 04:54:17;;;;;;;3.93;2.80;;;13.80;99.90;;;;;;5073565;28;20449;-56
2024/02/16 04:56:45;;;;;;;4.67;2.70;;;13.80;99.90;;;;;;5073701;28;21018;-57
2024/02/16 04:59:12;;;;;;;3.93;2.40;;;13.80;99.90;;;;;;5073894;28;20460;-56
2024/02/16 05:01:38;;;;;;;3.60;2.80;;;13.80;99.90;;;;;;5073886;28;20449;-57
2024/02/16 05:04:06;;;;;;;4.50;2.70;;;13.80;99.90;;;;;;5074081;28;20441;-56
2024/02/16 05:06:33;;;;;;;3.97;2.80;;;13.80;99.90;;;;;;5073761;28;20583;-57
2024/02/16 05:09:00;;;;;;;3.43;2.67;;;13.80;99.90;;;;;;5073384;28;20464;-56
2024/02/16 05:11:29;;;;;;;3.57;2.27;;;13.80;99.90;;;;;;5073599;28;20440;-56
2024/02/16 05:13:58;;;;;;;4.97;2.00;;;13.80;99.90;;;;;;5073742;28;20445;-56
2024/02/16 05:16:24;;;;;;;4.20;2.60;;;13.80;99.90;;;;;;5073907;28;20444;-56
2024/02/16 05:18:51;;;;;;;3.23;2.27;;;13.80;99.90;;;;;;5074000;28;20465;-56
2024/02/16 05:21:18;;;;;;;3.40;2.40;;;13.80;99.90;;;;;;5073840;28;20814;-56
2024/02/16 05:23:45;;;;;;;5.77;2.20;;;13.80;99.90;;;;;;5073859;28;20449;-56
2024/02/16 05:26:12;;;;;;;4.70;2.00;;;13.80;99.90;;;;;;5073380;28;21002;-56
2024/02/16 05:28:38;;;;;;;4.00;2.47;;;13.80;99.90;;;;;;5073375;28;20514;-57
2024/02/16 05:31:15;;;;;;;2.80;2.07;;;13.70;99.90;;;;;;5073488;28;21001;-56
2024/02/16 05:33:42;;;;;;;8.53;2.77;;;13.70;99.90;;;;;;5073545;28;20428;-56
2024/02/16 05:36:09;;;;;;;4.63;2.50;;;13.70;99.90;;;;;;5073118;28;20964;-58
2024/02/16 05:38:40;;;;;;;3.20;2.10;;;13.80;99.90;;;;;;5073345;28;20574;-57
2024/02/16 05:41:07;;;;;;;3.80;2.50;;;13.80;99.90;;;;;;5073427;28;20527;-56
2024/02/16 05:43:34;;;;;;;2.67;2.47;;;13.80;99.90;;;;;;5073170;28;20947;-56
2024/02/16 05:46:01;;;;;;;4.47;2.70;;;13.80;99.90;;;;;;5073580;28;20444;-56
2024/02/16 05:48:30;;;;;;;5.90;2.63;;;13.80;99.90;;;;;;5072840;28;20475;-56
2024/02/16 05:51:00;;;;;;;5.87;2.20;;;13.80;99.90;;;;;;5072904;28;20952;-57
2024/02/16 05:53:27;;;;;;;5.07;2.50;;;13.80;99.90;;;;;;5074120;28;20449;-56
2024/02/16 05:55:55;;;;;;;4.10;2.73;;;13.80;99.90;;;;;;5073169;28;20444;-56
2024/02/16 05:58:22;;;;;;;6.00;2.87;;;13.90;99.90;;;;;;5072839;28;20469;-56
2024/02/16 06:00:49;;;;;;;2.43;2.13;;;13.90;99.90;;;;;;5073272;28;20903;-56
2024/02/16 06:03:16;;;;;;;3.43;2.60;;;13.90;99.90;;;;;;5073017;28;20953;-56
2024/02/16 06:05:45;;;;;;;4.50;2.80;;;13.90;99.90;;;;;;5073236;28;20543;-56
2024/02/16 06:08:12;;;;;;;6.60;2.67;;;13.90;99.90;;;;;;5076771;28;20571;-57
2024/02/16 06:10:40;;;;;;;3.33;2.40;;;13.90;99.90;;;;;;5076779;28;20797;-56
2024/02/16 06:13:07;;;;;;;4.70;2.60;;;13.90;99.90;;;;;;5077103;28;20448;-56
2024/02/16 06:15:34;;;;;;;4.53;2.40;;;13.90;99.90;;;;;;5077119;28;20570;-57
2024/02/16 06:18:02;;;;;;;2.90;2.13;;;14.00;99.90;;;;;;5077023;28;20436;-56
2024/02/16 06:20:29;;;;;;;2.50;2.27;;;14.00;99.90;;;;;;5077051;28;20449;-56
2024/02/16 06:22:57;;;;;;;3.17;2.50;;;14.00;99.90;;;;;;5076955;28;20459;-56
2024/02/16 06:25:24;;;;;;;3.20;2.77;;;14.00;99.90;;;;;;5076502;28;20459;-56
2024/02/16 06:27:51;;;;;;;4.30;2.57;;;14.00;99.90;;;;;;5076805;28;20507;-57
2024/02/16 06:30:18;;;;;;;6.33;2.53;;;14.00;99.90;;;;;;5076639;28;20436;-56
2024/02/16 06:32:45;;;;;;;4.13;2.23;;;13.90;99.90;;;;;;5076706;28;20441;-56
2024/02/16 06:35:12;;;;;;;4.10;2.80;;;14.00;99.90;;;;;;5076756;28;20552;-56
2024/02/16 06:37:39;;;;;;;3.30;2.50;;;14.00;99.90;;;;;;5076834;28;20444;-56
2024/02/16 06:40:10;;;;;;;3.33;2.30;;;14.00;99.90;;;;;;5076713;28;20505;-56
2024/02/16 06:42:37;;;;;;;2.77;2.00;;;14.00;99.90;;;;;;5076651;28;20432;-56
2024/02/16 06:45:05;;;;;;;2.77;2.53;;;14.10;99.90;;;;;;5076559;28;20447;-56
2024/02/16 06:47:32;;;;;;;4.60;3.10;;;14.10;99.90;;;;;;5076474;28;20978;-56
2024/02/16 06:49:58;;;;;;;4.20;2.87;;;14.10;99.90;;;;;;5076020;28;20478;-56
2024/02/16 06:52:25;;;;;;;3.33;2.70;;;14.10;99.90;;;;;;5076053;28;20935;-56
2024/02/16 06:54:53;;;;;;;3.87;2.33;;;14.10;99.90;;;;;;5076300;28;20464;-56
2024/02/16 06:57:21;;;;;;;4.73;2.50;;;14.10;99.90;;;;;;5076496;28;20497;-56
2024/02/16 06:59:48;;;;;;;7.87;2.53;;;14.10;99.90;;;;;;5076434;28;20461;-56
2024/02/16 07:02:17;;;;;;;4.47;2.77;;;14.10;99.90;;;;;;5076307;28;20824;-56
2024/02/16 07:04:45;;;;;;;3.70;2.73;;;14.10;99.90;;;;;;5075976;28;20449;-56
2024/02/16 07:07:12;;;;;;;4.03;3.20;;;14.10;99.90;;;;;;5076141;28;20492;-56
2024/02/16 07:09:39;;;;;;;6.40;2.00;;;14.20;99.90;;;;;;5075772;28;20471;-56
2024/02/16 07:12:07;;;;;;;4.90;2.40;;;14.20;99.90;;;;;;5076068;28;20865;-56
2024/02/16 07:14:35;;;;;;;5.77;2.63;;;14.20;99.90;;;;;;5076082;28;20457;-56
2024/02/16 07:17:02;;;;;;;4.37;2.40;;;14.20;99.90;;;;;;5075631;28;20443;-56
2024/02/16 07:19:29;;;;;;;4.10;2.53;;;14.20;99.90;;;;;;5076127;28;21061;-56
2024/02/16 07:21:56;;;;;;;6.20;2.90;;;14.20;99.90;;;;;;5075975;28;20813;-56
2024/02/16 07:24:22;;;;;;;3.93;2.40;;;14.30;99.90;;;;;;5076176;28;20444;-57
2024/02/16 07:26:49;;;;;;;4.00;2.90;;;14.30;99.90;;;;;;5075995;28;20476;-57
2024/02/16 07:29:16;;;;;;;3.00;2.40;;;14.30;99.90;;;;;;5076068;28;20460;-57
2024/02/16 07:31:44;;;;;;;4.67;2.33;;;14.30;99.90;;;;;;5075821;28;20437;-56
2024/02/16 07:34:12;;;;;;;3.93;2.40;;;14.40;99.90;;;;;;5075570;28;20444;-56
2024/02/16 07:36:39;;;;;;;7.63;2.37;;;14.40;99.90;;;;;;5075689;28;20441;-57
2024/02/16 07:39:05;;;;;;;3.00;2.10;;;14.50;99.90;;;;;;5075831;28;20460;-56
2024/02/16 07:41:32;;;;;;;4.10;2.70;;;14.50;99.90;;;;;;5075540;28;20440;-57
2024/02/16 07:43:59;;;;;;;4.10;2.47;;;14.50;99.90;;;;;;5075200;28;20449;-56
2024/02/16 07:46:26;;;;;;;5.90;2.60;;;14.50;99.90;;;;;;5075099;28;20964;-56
2024/02/16 07:48:54;;;;;;;5.47;2.53;;;14.60;99.90;;;;;;5075250;28;20479;-56
2024/02/16 07:51:21;;;;;;;3.77;2.40;;;14.60;99.90;;;;;;5075119;28;20467;-56
2024/02/16 07:53:48;;;;;;;5.50;2.47;;;14.60;99.90;;;;;;5075250;28;20466;-57
2024/02/16 07:56:16;;;;;;;3.13;2.43;;;14.60;99.90;;;;;;5075191;28;20531;-56
2024/02/16 07:58:44;;;;;;;2.30;1.90;;;14.60;99.90;;;;;;5075076;28;20460;-56
2024/02/16 08:01:15;;;;;;;6.90;2.50;;;14.60;99.90;;;;;;5075194;28;20455;-56
2024/02/16 08:03:41;;;;;;;3.70;2.73;;;14.70;99.90;;;;;;5075162;28;20425;-56
2024/02/16 08:06:10;;;;;;;6.07;2.43;;;14.70;99.90;;;;;;5075028;28;20440;-56
2024/02/16 08:08:36;;;;;;;6.73;2.30;;;14.70;99.90;;;;;;5074891;28;20587;-56
2024/02/16 08:11:03;;;;;;;4.60;2.83;;;14.70;99.90;;;;;;5074398;28;20448;-60
2024/02/16 08:13:30;;;;;;;6.60;2.70;;;14.80;99.90;;;;;;5073752;28;20447;-57
2024/02/16 08:15:57;;;;;;;4.20;2.97;;;14.80;99.90;;;;;;5062017;28;20437;-58
2024/02/16 08:18:24;;;;;;;4.53;2.70;;;14.90;99.90;;;;;;5073092;28;20455;-57
2024/02/16 08:20:51;;;;;;;3.83;2.80;;;14.90;99.90;;;;;;5074522;28;20793;-57
2024/02/16 08:23:20;;;;;;;5.00;2.60;;;15.00;99.90;;;;;;5074250;28;21042;-56
2024/02/16 08:25:47;;;;;;;6.17;2.83;;;15.10;99.90;;;;;;5074596;28;20456;-57
2024/02/16 08:28:14;;;;;;;3.77;2.80;;;15.20;99.90;;;;;;5073753;28;20485;-57
2024/02/16 08:30:43;;;;;;;4.63;2.57;;;15.20;99.90;;;;;;5073931;28;20831;-57
2024/02/16 08:33:10;;;;;;;2.60;2.40;;;15.30;99.90;;;;;;5074398;28;20476;-57
2024/02/16 08:35:37;;;;;;;4.13;2.20;;;15.40;99.90;;;;;;5074412;28;20447;-56
2024/02/16 08:38:04;;;;;;;5.80;2.57;;;15.50;99.90;;;;;;5074500;28;20502;-56
2024/02/16 08:40:32;;;;;;;3.50;2.57;;;15.60;99.90;;;;;;5074441;28;20453;-57
2024/02/16 08:43:01;;;;;;;5.47;2.70;;;15.60;99.90;;;;;;5074492;28;20794;-56
2024/02/16 08:45:28;;;;;;;8.83;2.40;;;15.70;99.90;;;;;;5074359;28;20976;-57
2024/02/16 08:47:57;;;;;;;4.87;2.80;;;15.70;99.90;;;;;;5061650;28;20473;-57
2024/02/16 08:50:24;;;;;;;4.37;2.43;;;15.70;99.90;;;;;;5054822;28;20442;-57
2024/02/16 08:52:51;;;;;;;4.80;3.40;;;15.70;99.90;;;;;;5054117;28;20457;-57
2024/02/16 08:55:18;;;;;;;11.17;3.23;;;15.80;99.90;;;;;;5054299;28;20504;-56
2024/02/16 08:57:46;;;;;;;4.37;3.37;;;15.80;99.90;;;;;;5054075;28;20441;-58
2024/02/16 09:00:16;;;;;;;3.13;2.50;;;15.80;99.90;;;;;;5053855;28;20456;-57
2024/02/16 09:02:43;;;;;;;4.50;2.50;;;15.80;99.90;;;;;;5054116;28;20446;-57
2024/02/16 09:05:11;;;;;;;4.00;2.67;;;15.80;99.90;;;;;;5054960;28;20456;-57
2024/02/16 09:07:38;;;;;;;4.70;2.63;;;15.90;99.90;;;;;;5053931;28;20477;-57
2024/02/16 09:10:06;;;;;;;9.13;3.03;;;15.80;99.90;;;;;;5053498;28;20552;-57
2024/02/16 09:12:32;;;;;;;6.63;3.23;;;15.80;99.90;;;;;;5053849;28;20441;-56
2024/02/16 09:15:01;;;;;;;5.07;3.07;;;15.80;99.90;;;;;;5053836;28;20452;-57
2024/02/16 09:17:27;;;;;;;10.63;3.03;;;15.80;99.90;;;;;;5053847;28;20430;-56
2024/02/16 09:19:54;;;;;;;6.77;3.10;;;15.80;99.90;;;;;;5053412;28;20476;-57
2024/02/16 09:22:21;;;;;;;5.67;2.90;;;15.80;99.90;;;;;;5053655;28;20441;-57
2024/02/16 09:24:48;;;;;;;3.83;2.87;;;15.80;99.90;;;;;;5053391;28;20939;-56
2024/02/16 09:27:15;;;;;;;6.70;2.67;;;15.90;99.90;;;;;;5053693;28;20445;-56
2024/02/16 09:29:42;;;;;;;6.07;3.00;;;16.00;99.90;;;;;;5053644;28;20465;-57
2024/02/16 09:32:10;;;;;;;6.43;2.47;;;16.00;99.90;;;;;;5053346;28;20450;-57
2024/02/16 09:34:37;;;;;;;4.30;2.40;;;16.10;99.90;;;;;;5053354;28;20450;-57
2024/02/16 09:37:04;;;;;;;7.00;3.07;;;16.20;99.90;;;;;;5053414;28;20448;-57
2024/02/16 09:39:32;;;;;;;4.23;2.90;;;16.20;99.90;;;;;;5053022;28;20830;-57
2024/02/16 09:41:58;;;;;;;4.30;2.33;;;16.20;99.90;;;;;;5053625;28;20511;-57
2024/02/16 09:44:26;;;;;;;7.83;2.77;;;16.20;99.90;;;;;;5053319;28;20935;-57
2024/02/16 09:46:55;;;;;;;9.70;3.40;;;16.20;99.90;;;;;;5053377;28;20442;-57
2024/02/16 09:49:23;;;;;;;5.60;3.40;;;16.20;99.90;;;;;;5053184;28;20500;-57
2024/02/16 09:51:50;;;;;;;6.73;3.23;;;16.20;99.90;;;;;;5053981;28;20548;-56
2024/02/16 09:54:17;;;;;;;7.80;3.13;;;16.20;99.90;;;;;;5052558;28;20955;-57
2024/02/16 09:56:45;;;;;;;6.27;2.67;;;16.20;99.90;;;;;;5053339;28;20891;-57
2024/02/16 09:59:12;;;;;;;10.57;3.07;;;16.30;99.90;;;;;;5053170;28;20476;-57
2024/02/16 10:01:39;;;;;;;4.53;2.73;;;16.30;99.90;;;;;;5052860;28;20445;-57
2024/02/16 10:04:09;;;;;;;5.30;2.70;;;16.30;99.90;;;;;;5053103;28;20452;-57
2024/02/16 10:06:48;;;;;;;11.13;2.80;;;16.30;99.90;;;;;;5053130;28;20452;-57
2024/02/16 10:09:24;;;;;;;10.70;3.40;;;16.40;99.90;;;;;;5052980;28;20512;-57
2024/02/16 10:11:50;;;;;;;3.90;2.40;;;16.40;99.90;;;;;;5053018;28;20523;-56
2024/02/16 10:14:19;;;;;;;5.03;2.40;;;16.40;99.90;;;;;;5053076;28;20452;-56
2024/02/16 10:16:46;;;;;;;6.50;3.00;;;16.40;99.90;;;;;;5052820;28;20442;-56
2024/02/16 10:19:13;;;;;;;5.30;2.90;;;16.40;99.90;;;;;;5052928;28;20968;-56
2024/02/16 10:21:40;;;;;;;5.47;2.77;;;16.50;99.90;;;;;;5053056;28;20445;-56
2024/02/16 10:24:09;;;;;;;9.33;3.20;;;16.50;99.90;;;;;;5053546;28;20838;-56
2024/02/16 10:26:37;;;;;;;6.20;2.47;;;16.50;99.90;;;;;;5052947;28;20445;-56
2024/02/16 10:29:05;;;;;;;3.50;2.90;;;16.60;99.90;;;;;;5053628;28;20481;-56
2024/02/16 10:31:33;;;;;;;5.23;2.50;;;16.60;99.90;;;;;;5056763;28;20437;-56
2024/02/16 10:34:01;;;;;;;6.50;3.07;;;16.60;99.90;;;;;;5072745;28;20519;-56
2024/02/16 10:36:29;;;;;;;7.17;3.30;;;16.60;99.90;;;;;;5071481;28;20448;-56
2024/02/16 10:38:57;;;;;;;3.40;2.70;;;16.70;99.90;;;;;;5072634;28;20871;-56
2024/02/16 10:41:29;;;;;;;4.30;3.20;;;16.60;99.90;;;;;;5072865;28;20452;-56
2024/02/16 10:43:56;;;;;;;5.27;3.37;;;16.70;99.90;;;;;;5072604;28;20915;-56
2024/02/16 10:46:25;;;;;;;7.83;3.37;;;16.70;99.90;;;;;;5072756;28;20451;-56
2024/02/16 10:48:51;;;;;;;7.67;3.30;;;16.70;99.90;;;;;;5072944;28;20495;-56
2024/02/16 10:51:23;;;;;;;14.07;3.63;;;16.70;99.90;;;;;;5072658;28;20441;-56
2024/02/16 10:53:54;;;;;;;6.23;3.57;;;16.70;99.90;;;;;;5075709;28;20449;-56
2024/02/16 10:56:33;;;;;;;10.97;3.60;;;16.70;99.90;;;;;;5076486;28;20482;-56
2024/02/16 10:59:02;;;;;;;4.80;3.23;;;16.70;99.90;;;;;;5076024;28;20456;-56
2024/02/16 11:01:32;;;;;;;7.93;3.30;;;16.80;99.90;;;;;;5076081;28;20494;-56
2024/02/16 11:04:03;;;;;;;8.67;3.50;;;16.80;99.90;;;;;;5076208;28;20425;-56
2024/02/16 11:06:29;;;;;;;6.40;3.43;;;16.90;99.90;;;;;;5076252;28;20470;-56
2024/02/16 11:09:07;;;;;;;8.30;2.73;;;16.90;99.90;;;;;;5076054;28;20498;-56
2024/02/16 11:11:36;;;;;;;11.17;4.03;;;16.90;99.90;;;;;;5076317;28;20482;-56
2024/02/16 11:14:03;;;;;;;6.20;3.40;;;17.00;99.90;;;;;;5076146;28;20456;-57
2024/02/16 11:16:30;;;;;;;6.80;3.30;;;17.00;99.90;;;;;;5056074;28;20499;-56
2024/02/16 11:18:57;;;;;;;9.10;4.00;;;17.00;99.90;;;;;;5055929;28;20457;-56
2024/02/16 11:21:24;;;;;;;7.03;3.53;;;17.00;99.90;;;;;;5055885;28;20441;-56
2024/02/16 11:23:51;;;;;;;9.30;3.70;;;17.00;99.90;;;;;;5055801;28;20881;-56
2024/02/16 11:26:19;;;;;;;14.50;4.47;;;16.90;99.90;;;;;;5055681;28;20931;-56
2024/02/16 11:28:47;;;;;;;7.53;4.20;;;16.90;99.90;;;;;;5055325;28;20855;-56
2024/02/16 11:31:14;;;;;;;6.50;3.63;;;16.80;99.90;;;;;;5055625;28;20441;-56
2024/02/16 11:33:45;;;;;;;9.67;3.93;;;16.80;99.90;;;;;;5055447;28;20438;-56
2024/02/16 11:36:12;;;;;;;8.00;4.40;;;16.80;99.90;;;;;;5056081;28;20426;-56
2024/02/16 11:38:39;;;;;;;8.97;3.57;;;16.80;99.90;;;;;;5055251;28;21042;-56
2024/02/16 11:41:08;;;;;;;8.60;4.47;;;16.70;99.90;;;;;;5055570;28;20810;-56
2024/02/16 11:43:35;;;;;;;7.70;3.50;;;16.70;99.90;;;;;;5055696;28;20540;-56
2024/02/16 11:46:13;;;;;;;6.87;3.83;;;16.60;99.90;;;;;;5055415;28;20445;-56
2024/02/16 11:48:41;;;;;;;7.53;3.80;;;16.50;99.90;;;;;;5055730;28;20480;-56
2024/02/16 11:51:08;;;;;;;8.10;4.50;;;16.50;99.90;;;;;;5055340;28;20445;-56
2024/02/16 11:53:35;;;;;;;9.20;4.20;;;16.40;99.90;;;;;;5055208;28;20453;-56
2024/02/16 11:56:01;;;;;;;8.67;3.70;;;16.40;99.90;;;;;;5055329;28;20446;-56
2024/02/16 11:58:30;;;;;;;10.60;4.43;;;16.30;99.90;;;;;;5054952;28;20975;-56
2024/02/16 12:00:59;;;;;;;7.97;4.03;;;16.30;99.90;;;;;;5055290;28;20446;-56
2024/02/16 12:03:28;;;;;;;4.20;3.63;;;16.20;99.90;;;;;;5055324;28;20455;-56
2024/02/16 12:05:56;;;;;;;6.07;4.03;;;16.20;99.90;;;;;;5055584;28;20476;-55
2024/02/16 12:08:23;;;;;;;8.93;4.30;;;16.20;99.90;;;;;;5055635;28;20485;-56
2024/02/16 12:10:51;;;;;;;8.93;4.33;;;16.10;99.90;;;;;;5055363;28;20553;-56
2024/02/16 12:13:19;;;;;;;5.50;4.03;;;16.00;99.90;;;;;;5060154;28;20515;-56
2024/02/16 12:15:46;;;;;;;9.07;4.90;;;16.00;99.90;;;;;;5074843;28;20939;-56
2024/02/16 12:18:20;;;;;;;4.80;4.10;;;16.00;99.90;;;;;;5075219;28;20511;-56
2024/02/16 12:20:59;;;;;;;10.47;5.67;;;16.00;99.90;;;;;;5075484;28;20436;-56
2024/02/16 12:23:26;;;;;;;10.60;5.17;;;16.00;99.90;;;;;;5074878;28;20436;-56
2024/02/16 12:25:53;;;;;;;11.90;5.80;;;16.00;99.90;;;;;;5074774;28;20455;-56
2024/02/16 12:28:20;;;;;;;6.17;4.60;;;15.90;99.90;;;;;;5075108;28;20484;-56
2024/02/16 12:30:48;;;;;;;11.93;5.00;;;15.90;99.90;;;;;;5074729;28;20453;-56
2024/02/16 12:33:14;;;;;;;5.47;4.33;;;15.90;99.90;;;;;;5074906;28;20453;-56
2024/02/16 12:35:41;;;;;;;5.57;4.43;;;15.90;99.90;;;;;;5074571;28;20436;-56
2024/02/16 12:38:10;;;;;;;11.07;6.00;;;15.80;99.90;;;;;;5074098;28;20464;-56
2024/02/16 12:40:36;;;;;;;6.97;4.80;;;15.80;99.90;;;;;;5074386;28;20451;-56
2024/02/16 12:43:03;;;;;;;8.90;5.27;;;15.80;99.90;;;;;;5074451;28;20474;-56
2024/02/16 12:45:31;;;;;;;7.20;4.90;;;15.80;99.90;;;;;;5074419;28;20455;-56
2024/02/16 12:47:58;;;;;;;8.93;5.50;;;15.80;99.90;;;;;;5074474;28;20448;-56